Time;durP1;ratioP1;P1;durP2;ratioP2;P2;SDS_P1;SDS_P2;PMS_P1;PMS_P2;Temp;Humidity;BMP_temperature;BMP_pressure;BME280_temperature;BME280_humidity;BME280_pressure;Samples;Min_cycle;Max_cycle;Signal;HPM_P1;HPM_P2
2023/12/11 00:00:30;;;;;;;;;;;12.50;49.60;;;12.66;51.61;99028.22;5055614;28;19924;-35
2023/12/11 00:02:59;;;;;;;;;;;12.50;49.60;;;12.74;52.53;99048.34;5055596;28;20292;-35
2023/12/11 00:05:27;;;;;;;;;;;12.50;49.60;;;12.71;52.17;99043.00;5055462;28;19979;-34
2023/12/11 00:07:55;;;;;;;;;;;12.50;49.60;;;12.75;52.29;99059.28;5055359;28;20020;-34
2023/12/11 00:10:23;;;;;;;;;;;12.50;49.60;;;12.75;52.20;99059.28;5055242;28;20028;-35
2023/12/11 00:12:50;;;;;;;;;;;12.50;49.60;;;12.74;52.95;99058.38;5055219;28;19931;-35
2023/12/11 00:15:18;;;;;;;;;;;12.50;49.60;;;12.75;52.57;99039.19;5055170;28;19971;-35
2023/12/11 00:17:48;;;;;;;;;;;12.50;49.50;;;12.73;51.94;99061.63;5054628;28;19948;-34
2023/12/11 00:20:16;;;;;;;;;;;12.50;49.60;;;12.73;51.96;99059.13;5055517;28;19925;-34
2023/12/11 00:22:44;;;;;;;;;;;12.50;49.60;;;12.73;51.90;99066.66;5056166;28;20003;-35
2023/12/11 00:25:13;;;;;;;;;;;12.50;49.60;;;12.73;52.52;99056.63;5048124;28;19999;-36
2023/12/11 00:27:41;;;;;;;;;;;12.50;49.50;;;12.74;52.42;99058.38;5055710;28;19925;-35
2023/12/11 00:30:10;;;;;;;;;;;12.50;49.50;;;12.74;52.49;99043.31;5055505;28;20196;-35
2023/12/11 00:32:38;;;;;;;;;;;12.50;49.60;;;12.74;52.45;99058.38;5055150;28;20307;-35
2023/12/11 00:35:08;;;;;;;;;;;12.50;49.60;;;12.77;52.24;99058.66;5054183;28;19929;-36
2023/12/11 00:37:36;;;;;;;;;;;12.50;49.50;;;12.75;52.12;99070.22;5054770;28;20431;-35
2023/12/11 00:40:05;;;;;;;;;;;12.50;49.50;;;12.74;52.45;99068.44;5054939;28;20020;-35
2023/12/11 00:42:34;;;;;;;;;;;12.50;49.50;;;12.73;52.41;99074.19;5055753;28;19925;-36
2023/12/11 00:45:02;;;;;;;;;;;12.50;49.50;;;12.74;52.54;99072.56;5054913;28;19924;-35
2023/12/11 00:47:30;;;;;;;;;;;12.50;49.50;;;12.74;51.92;99068.44;5054630;28;19972;-35
2023/12/11 00:49:58;;;;;;;;;;;12.50;49.40;;;12.73;51.54;99061.63;5054798;28;19951;-36
2023/12/11 00:52:28;;;;;;;;;;;12.50;49.50;;;12.74;51.70;99063.41;5054705;28;20284;-35
2023/12/11 00:54:56;;;;;;;;;;;12.50;49.40;;;12.75;52.33;99065.19;5054179;28;19971;-37
2023/12/11 00:57:24;;;;;;;;;;;12.50;49.50;;;12.71;52.47;99069.78;5054508;28;20386;-36
2023/12/11 00:59:52;;;;;;;;;;;12.50;49.40;;;12.74;52.46;99078.50;5054273;28;20015;-35
2023/12/11 01:02:19;;;;;;;;;;;12.50;49.50;;;12.74;51.92;99083.53;5054631;28;20300;-36
2023/12/11 01:04:47;;;;;;;;;;;12.50;49.40;;;12.76;51.49;99092.09;5055134;28;19999;-35
2023/12/11 01:07:15;;;;;;;;;;;12.50;49.40;;;12.75;52.30;99089.44;5046528;28;20347;-35
2023/12/11 01:09:44;;;;;;;;;;;12.50;49.40;;;12.73;51.99;99081.75;5054926;28;19961;-34
2023/12/11 01:12:12;;;;;;;;;;;12.50;49.40;;;12.77;51.92;99078.78;5054124;28;19978;-34
2023/12/11 01:14:40;;;;;;;;;;;12.50;49.40;;;12.76;51.98;99094.63;5053675;28;20011;-35
2023/12/11 01:17:08;;;;;;;;;;;12.60;49.40;;;12.79;52.12;99086.47;5053790;28;20350;-34
2023/12/11 01:19:56;;;;;;;;;;;12.60;49.50;;;12.78;52.41;99095.63;5054055;28;19931;-35
2023/12/11 01:22:24;;;;;;;;;;;12.50;50.10;;;12.78;52.28;99099.75;5054019;28;20408;-35
2023/12/11 01:24:53;;;;;;;;;;;12.50;49.50;;;12.78;53.02;99100.66;5053546;28;19972;-35
2023/12/11 01:27:21;;;;;;;;;;;12.60;49.60;;;12.76;52.02;99092.09;5055137;28;19925;-34
2023/12/11 01:29:49;;;;;;;;;;;12.50;49.50;;;12.77;52.20;99108.06;5054073;28;19925;-35
2023/12/11 01:32:17;;;;;;;;;;;12.60;49.60;;;12.78;52.28;99105.69;5046148;28;19975;-35
2023/12/11 01:34:45;;;;;;;;;;;12.60;49.80;;;12.77;52.33;99108.94;5054208;28;20400;-35
2023/12/11 01:37:13;;;;;;;;;;;12.60;49.70;;;12.77;52.10;99113.94;5053521;28;19929;-36
2023/12/11 01:39:41;;;;;;;;;;;12.60;49.70;;;12.78;52.18;99115.72;5054618;28;20380;-35
2023/12/11 01:42:11;;;;;;;;;;;12.50;49.60;;;12.76;52.61;99117.22;5053710;28;19925;-36
2023/12/11 01:44:39;;;;;;;;;;;12.50;49.50;;;12.78;52.54;99120.75;5053847;28;19947;-35
2023/12/11 01:47:07;;;;;;;;;;;12.60;49.60;;;12.77;52.06;99113.94;5053601;28;20312;-35
2023/12/11 01:49:35;;;;;;;;;;;12.50;49.60;;;12.79;52.43;99116.63;5053382;28;19970;-34
2023/12/11 01:52:04;;;;;;;;;;;12.50;49.60;;;12.79;52.04;99117.50;5053589;28;19925;-35
2023/12/11 01:54:32;;;;;;;;;;;12.60;49.60;;;12.80;52.15;99110.84;5053645;28;19924;-35
2023/12/11 01:57:00;;;;;;;;;;;12.50;49.40;;;12.79;52.00;99107.47;5053676;28;19929;-35
2023/12/11 01:59:29;;;;;;;;;;;12.60;49.50;;;12.77;52.35;99118.97;5054008;28;19925;-35
2023/12/11 02:01:57;;;;;;;;;;;12.50;49.50;;;12.78;51.68;99105.69;5054303;28;20452;-35
2023/12/11 02:04:25;;;;;;;;;;;12.60;49.50;;;12.78;51.45;99099.75;5055292;28;19932;-35
2023/12/11 02:06:53;;;;;;;;;;;12.50;49.30;;;12.78;52.33;99095.63;5060516;28;19925;-36
2023/12/11 02:09:21;;;;;;;;;;;12.60;49.50;;;12.77;52.66;99101.38;5061988;28;19928;-35
2023/12/11 02:11:49;;;;;;;;;;;12.50;49.40;;;12.77;51.62;99098.88;5061486;28;20019;-35
2023/12/11 02:14:17;;;;;;;;;;;12.60;49.50;;;12.78;51.98;99095.63;5054019;28;19940;-34
2023/12/11 02:16:46;;;;;;;;;;;12.60;49.50;;;12.77;52.64;99088.81;5053953;28;19963;-34
2023/12/11 02:19:14;;;;;;;;;;;12.50;49.50;;;12.76;52.05;99087.06;5054939;28;19975;-34
2023/12/11 02:21:42;;;;;;;;;;;12.50;49.50;;;12.74;52.51;99086.03;5055756;28;19925;-35
2023/12/11 02:24:12;;;;;;;;;;;12.60;49.50;;;12.74;52.10;99081.00;5058515;28;19925;-34
2023/12/11 02:26:41;;;;;;;;;;;12.50;49.50;;;12.77;52.34;99083.78;5064555;28;19983;-35
2023/12/11 02:29:09;;;;;;;;;;;12.50;49.50;;;12.75;52.75;99080.28;5054476;28;19932;-34
2023/12/11 02:31:38;;;;;;;;;;;12.50;49.40;;;12.77;52.26;99082.94;5061226;28;19925;-34
2023/12/11 02:34:06;;;;;;;;;;;12.50;49.40;;;12.76;52.25;99077.03;5053614;28;20024;-35
2023/12/11 02:36:34;;;;;;;;;;;12.50;49.40;;;12.74;52.21;99070.94;5052184;28;19925;-34
2023/12/11 02:39:02;;;;;;;;;;;12.50;49.40;;;12.72;52.32;99059.84;5052271;28;19925;-36
2023/12/11 02:41:30;;;;;;;;;;;12.50;49.40;;;12.71;51.81;99058.09;5052476;28;19931;-34
2023/12/11 02:44:00;;;;;;;;;;;12.50;49.40;;;12.74;52.30;99058.38;5052411;28;19955;-33
2023/12/11 02:46:28;;;;;;;;;;;12.50;49.40;;;12.75;52.43;99070.22;5053305;28;19924;-35
2023/12/11 02:48:55;;;;;;;;;;;12.50;49.30;;;12.74;51.90;99058.38;5053147;28;20015;-34
2023/12/11 02:51:24;;;;;;;;;;;12.50;49.50;;;12.74;52.43;99060.91;5053294;28;19925;-34
2023/12/11 02:53:52;;;;;;;;;;;12.50;49.50;;;12.74;51.88;99052.47;5052795;28;20448;-35
2023/12/11 02:56:20;;;;;;;;;;;12.50;49.50;;;12.73;52.08;99041.53;5052506;28;19925;-35
2023/12/11 02:58:47;;;;;;;;;;;12.50;49.50;;;12.73;52.19;99041.53;5054558;28;19979;-35
2023/12/11 03:01:17;;;;;;;;;;;12.50;49.60;;;12.74;52.51;99040.78;5059255;28;20045;-35
2023/12/11 03:03:45;;;;;;;;;;;12.50;49.50;;;12.74;52.16;99033.25;5059407;28;19924;-35
2023/12/11 03:06:17;;;;;;;;;;;12.50;49.60;;;12.74;52.21;99028.22;5065858;28;19925;-36
2023/12/11 03:08:45;;;;;;;;;;;12.50;49.60;;;12.74;52.19;99018.19;5065394;28;19940;-35
2023/12/11 03:11:13;;;;;;;;;;;12.50;49.50;;;12.63;52.12;99013.78;5060136;28;19967;-34
2023/12/11 03:13:41;;;;;;;;;;;12.50;49.50;;;12.76;52.50;99019.22;5060884;28;19994;-35
2023/12/11 03:16:13;;;;;;;;;;;12.50;49.60;;;12.74;53.09;99018.19;5060297;28;19925;-35
2023/12/11 03:18:42;;;;;;;;;;;12.50;49.50;;;12.75;52.19;99019.97;5077356;22;19971;-39
2023/12/11 03:21:10;;;;;;;;;;;12.50;49.50;;;12.75;52.36;99009.91;5057614;28;19925;-35
2023/12/11 03:23:39;;;;;;;;;;;12.50;49.50;;;12.75;53.01;99012.41;5058042;28;20019;-35
2023/12/11 03:26:07;;;;;;;;;;;12.50;49.60;;;12.74;52.79;99008.13;5057986;28;20011;-35
2023/12/11 03:28:35;;;;;;;;;;;12.50;49.60;;;12.74;52.07;98998.09;5058226;28;19972;-35
2023/12/11 03:31:03;;;;;;;;;;;12.50;49.50;;;12.74;51.89;98998.09;5058055;28;19925;-36
2023/12/11 03:33:31;;;;;;;;;;;12.50;49.50;;;12.74;52.26;98998.09;5058661;28;19931;-36
2023/12/11 03:36:00;;;;;;;;;;;12.50;49.60;;;12.73;52.29;99001.31;5057743;28;20051;-34
2023/12/11 03:38:28;;;;;;;;;;;12.50;49.70;;;12.74;52.41;98998.09;5058178;28;19929;-35
2023/12/11 03:40:56;;;;;;;;;;;12.50;49.50;;;12.76;51.82;98995.72;5058102;28;19975;-35
2023/12/11 03:43:24;;;;;;;;;;;12.50;49.50;;;12.75;51.79;98984.78;5057959;28;19931;-35
2023/12/11 03:45:54;;;;;;;;;;;12.50;49.60;;;12.76;51.85;98981.53;5058348;28;20350;-36
2023/12/11 03:48:22;;;;;;;;;;;12.50;49.60;;;12.70;53.03;98965.88;5057780;28;20392;-35
2023/12/11 03:50:50;;;;;;;;;;;12.50;49.60;;;12.76;53.00;98986.56;5057829;28;19929;-35
2023/12/11 03:53:20;;;;;;;;;;;12.50;49.50;;;12.75;52.58;98974.72;5058117;28;19972;-36
2023/12/11 03:55:48;;;;;;;;;;;12.50;49.60;;;12.75;51.89;98974.72;5057694;28;19925;-35
2023/12/11 03:58:16;;;;;;;;;;;12.50;49.60;;;12.75;51.82;98977.25;5057652;28;19964;-35
2023/12/11 04:00:44;;;;;;;;;;;12.50;49.60;;;12.75;52.27;98982.25;5057983;28;19924;-35
2023/12/11 04:03:13;;;;;;;;;;;12.50;49.60;;;12.73;52.35;98982.84;5057580;28;20403;-35
2023/12/11 04:05:41;;;;;;;;;;;12.50;49.60;;;12.75;52.54;98974.72;5057817;28;20015;-35
2023/12/11 04:08:09;;;;;;;;;;;12.50;49.60;;;12.75;52.47;98969.69;5057832;28;19935;-35
2023/12/11 04:10:39;;;;;;;;;;;12.50;49.60;;;12.74;51.93;98972.94;5054993;28;19979;-35
2023/12/11 04:13:06;;;;;;;;;;;12.50;49.50;;;12.74;52.50;98975.47;5054806;28;20019;-35
2023/12/11 04:15:34;;;;;;;;;;;12.50;49.60;;;12.75;52.69;98973.84;5054378;28;19931;-35
2023/12/11 04:18:03;;;;;;;;;;;12.50;49.50;;;12.74;52.07;98965.41;5054368;28;20276;-34
2023/12/11 04:20:31;;;;;;;;;;;12.50;49.60;;;12.74;52.45;98970.44;5054714;28;20023;-35
2023/12/11 04:22:59;;;;;;;;;;;12.50;49.60;;;12.71;53.01;98957.56;5054604;28;19980;-35
2023/12/11 04:25:26;;;;;;;;;;;12.50;49.50;;;12.73;52.47;98955.22;5054615;28;20407;-35
2023/12/11 04:27:56;;;;;;;;;;;12.50;49.60;;;12.72;52.25;98959.34;5054353;28;20019;-35
2023/12/11 04:30:24;;;;;;;;;;;12.50;49.60;;;12.72;52.40;98959.34;5053877;28;19975;-35
2023/12/11 04:32:52;;;;;;;;;;;12.50;49.60;;;12.68;52.52;98959.81;5054593;28;19931;-35
2023/12/11 04:35:20;;;;;;;;;;;12.50;49.70;;;12.73;52.60;98955.22;5054035;28;19933;-35
2023/12/11 04:37:48;;;;;;;;;;;12.50;49.70;;;12.73;52.86;98948.56;5054309;28;19955;-35
2023/12/11 04:40:15;;;;;;;;;;;12.50;49.60;;;12.70;52.27;98955.81;5054317;28;20262;-37
2023/12/11 04:42:43;;;;;;;;;;;12.50;49.70;;;12.72;52.35;98954.31;5054108;28;19928;-35
2023/12/11 04:45:13;;;;;;;;;;;12.50;49.70;;;12.71;51.73;98957.56;5053970;28;20450;-35
2023/12/11 04:47:41;;;;;;;;;;;12.50;49.60;;;12.73;52.37;98941.03;5054194;28;19925;-35
2023/12/11 04:50:09;;;;;;;;;;;12.50;49.60;;;12.74;52.01;98927.72;5054232;28;19924;-35
2023/12/11 04:52:37;;;;;;;;;;;12.50;49.60;;;12.73;52.29;98941.03;5054056;28;19991;-35
2023/12/11 04:55:06;;;;;;;;;;;12.50;49.70;;;12.75;52.02;98943.69;5058174;28;20019;-35
2023/12/11 04:57:34;;;;;;;;;;;12.50;49.80;;;12.75;52.71;98949.59;5061357;28;19928;-35
2023/12/11 05:00:04;;;;;;;;;;;12.50;49.80;;;12.73;52.38;98943.53;5061240;28;19924;-35
2023/12/11 05:02:33;;;;;;;;;;;12.50;49.70;;;12.73;52.91;98936.00;5058547;28;19964;-35
2023/12/11 05:05:01;;;;;;;;;;;12.50;49.70;;;12.74;52.50;98932.75;5059257;28;19925;-35
2023/12/11 05:07:29;;;;;;;;;;;12.50;49.70;;;12.73;52.39;98925.94;5047915;28;20403;-35
2023/12/11 05:09:57;;;;;;;;;;;12.50;49.70;;;12.76;52.77;98935.41;5053806;28;19990;-34
2023/12/11 05:12:25;;;;;;;;;;;12.50;49.70;;;12.74;52.23;98932.75;5054016;28;20007;-35
2023/12/11 05:14:53;;;;;;;;;;;12.50;49.70;;;12.75;52.91;98923.59;5057999;28;19931;-35
2023/12/11 05:17:21;;;;;;;;;;;12.50;49.80;;;12.71;52.79;98907.31;5070245;28;19945;-35
2023/12/11 05:19:50;;;;;;;;;;;12.60;49.80;;;12.77;52.60;98917.94;5075348;28;19964;-35
2023/12/11 05:22:19;;;;;;;;;;;12.50;49.70;;;12.76;53.08;98911.16;5074430;28;19925;-35
2023/12/11 05:24:47;;;;;;;;;;;12.50;49.70;;;12.76;52.55;98906.13;5072713;28;19936;-35
2023/12/11 05:27:16;;;;;;;;;;;12.50;49.70;;;12.76;51.78;98906.13;5069497;28;19964;-35
2023/12/11 05:29:44;;;;;;;;;;;12.50;49.60;;;12.73;51.96;98903.31;5053710;28;19982;-35
2023/12/11 05:32:12;;;;;;;;;;;12.60;49.70;;;12.75;52.77;98904.38;5053311;28;19964;-35
2023/12/11 05:34:40;;;;;;;;;;;12.50;49.60;;;12.76;52.65;98900.22;5053404;28;19928;-35
2023/12/11 05:37:10;;;;;;;;;;;12.60;49.60;;;12.75;52.48;98899.34;5053327;28;19932;-35
2023/12/11 05:39:37;;;;;;;;;;;12.60;49.60;;;12.75;52.42;98909.38;5053415;28;19925;-35
2023/12/11 05:42:08;;;;;;;;;;;12.60;49.60;;;12.74;52.15;98891.66;5053796;28;19925;-36
2023/12/11 05:44:36;;;;;;;;;;;12.60;49.60;;;12.71;52.50;98879.66;5053248;28;19925;-36
2023/12/11 05:47:04;;;;;;;;;;;12.60;49.60;;;12.77;52.38;98897.84;5053182;28;20379;-35
2023/12/11 05:49:32;;;;;;;;;;;12.50;49.50;;;12.76;52.73;98893.56;5045175;28;19964;-35
2023/12/11 05:52:00;;;;;;;;;;;12.50;49.70;;;12.75;52.84;98929.50;5053112;28;20423;-35
2023/12/11 05:54:30;;;;;;;;;;;12.50;49.80;;;12.75;52.76;98916.94;5052818;28;20392;-35
2023/12/11 05:56:58;;;;;;;;;;;12.60;49.90;;;12.75;52.60;98904.38;5053123;28;19924;-35
2023/12/11 05:59:26;;;;;;;;;;;12.60;49.90;;;12.75;52.77;98899.34;5052961;28;19929;-35
2023/12/11 06:01:54;;;;;;;;;;;12.50;49.80;;;12.74;52.69;98907.63;5052664;28;19931;-35
2023/12/11 06:04:22;;;;;;;;;;;12.50;49.90;;;12.74;52.78;98907.63;5052620;28;19944;-35
2023/12/11 06:06:49;;;;;;;;;;;12.50;49.80;;;12.74;52.65;98897.56;5052886;28;20394;-36
2023/12/11 06:09:17;;;;;;;;;;;12.50;49.90;;;12.76;52.97;98910.28;5052896;28;19925;-35
2023/12/11 06:11:47;;;;;;;;;;;12.50;49.80;;;12.74;53.18;98902.59;5052757;28;19935;-36
2023/12/11 06:14:15;;;;;;;;;;;12.50;49.90;;;12.74;52.92;98912.63;5052720;28;19931;-36
2023/12/11 06:16:43;;;;;;;;;;;12.50;49.80;;;12.74;53.00;98912.63;5053014;28;19979;-35
2023/12/11 06:19:10;;;;;;;;;;;12.50;49.90;;;12.72;52.87;98909.09;5054947;28;20011;-35
2023/12/11 06:21:40;;;;;;;;;;;12.50;49.90;;;12.74;53.01;98907.63;5053058;28;19925;-36
2023/12/11 06:24:08;;;;;;;;;;;12.50;49.90;;;12.74;53.06;98922.69;5052203;28;19932;-35
2023/12/11 06:26:37;;;;;;;;;;;12.50;49.90;;;12.73;53.45;98910.88;5053800;28;19924;-36
2023/12/11 06:29:06;;;;;;;;;;;12.50;50.00;;;12.73;53.06;98910.88;5052517;28;20012;-34
2023/12/11 06:31:34;;;;;;;;;;;12.50;50.00;;;12.73;53.25;98899.94;5052744;28;19925;-36
2023/12/11 06:34:02;;;;;;;;;;;12.50;50.10;;;12.73;53.02;98909.97;5052449;28;19982;-36
2023/12/11 06:36:30;;;;;;;;;;;12.50;50.20;;;12.72;52.50;98909.09;5053523;28;20019;-36
2023/12/11 06:38:58;;;;;;;;;;;12.50;50.10;;;12.72;53.55;98914.13;5058182;28;19952;-36
2023/12/11 06:41:26;;;;;;;;;;;12.50;50.00;;;12.71;52.77;98912.34;5058758;28;20027;-36
2023/12/11 06:43:57;;;;;;;;;;;12.50;50.10;;;12.71;53.13;98902.28;5054400;28;20023;-36
2023/12/11 06:46:29;;;;;;;;;;;12.50;50.20;;;12.73;52.12;98899.94;5052524;28;19929;-36
2023/12/11 06:48:58;;;;;;;;;;;12.50;50.10;;;12.72;53.00;98901.56;5052591;28;20339;-36
2023/12/11 06:51:26;;;;;;;;;;;12.50;50.10;;;12.72;53.10;98904.06;5051943;28;19986;-36
2023/12/11 06:53:58;;;;;;;;;;;12.50;50.70;;;12.71;53.43;98907.31;5052495;28;19990;-36
2023/12/11 06:56:27;;;;;;;;;;;12.50;50.10;;;12.71;53.66;98896.41;5052103;28;19925;-36
2023/12/11 06:58:55;;;;;;;;;;;12.50;50.10;;;12.72;53.30;98899.03;5052275;28;19964;-36
2023/12/11 07:01:28;;;;;;;;;;;12.50;50.10;;;12.72;53.58;98899.03;5052157;28;20398;-36
2023/12/11 07:03:56;;;;;;;;;;;12.50;50.20;;;12.71;52.83;98897.25;5052524;28;19929;-36
2023/12/11 07:06:24;;;;;;;;;;;12.50;50.20;;;12.71;52.56;98902.28;5051611;28;19924;-35
2023/12/11 07:08:52;;;;;;;;;;;12.50;50.20;;;12.71;52.98;98899.78;5051746;28;19971;-35
2023/12/11 07:11:20;;;;;;;;;;;12.50;50.30;;;12.73;53.11;98900.81;5051867;28;19936;-35
2023/12/11 07:13:48;;;;;;;;;;;12.50;50.20;;;12.73;52.83;98894.91;5051880;28;20320;-35
2023/12/11 07:16:16;;;;;;;;;;;12.50;50.20;;;12.73;53.55;98890.75;5051596;28;20055;-35
2023/12/11 07:18:46;;;;;;;;;;;12.50;50.20;;;12.72;52.84;98899.03;5051827;28;19924;-35
2023/12/11 07:21:14;;;;;;;;;;;12.50;50.30;;;12.73;53.24;98893.28;5051554;28;19925;-35
2023/12/11 07:23:44;;;;;;;;;;;12.50;50.20;;;12.74;53.35;98892.53;5051080;28;20147;-35
2023/12/11 07:26:11;;;;;;;;;;;12.50;50.30;;;12.74;53.93;98897.56;5051834;28;19947;-35
2023/12/11 07:28:39;;;;;;;;;;;12.50;50.30;;;12.75;53.34;98894.31;5051639;28;20015;-36
2023/12/11 07:31:07;;;;;;;;;;;12.50;50.20;;;12.76;52.86;98896.09;5051718;28;19963;-34
2023/12/11 07:33:35;;;;;;;;;;;12.50;50.10;;;12.76;52.81;98896.09;5043324;28;19936;-34
2023/12/11 07:36:06;;;;;;;;;;;12.50;50.20;;;12.76;52.78;98900.22;5051406;28;19925;-34
2023/12/11 07:38:34;;;;;;;;;;;12.50;50.20;;;12.73;53.76;98890.75;5051422;28;20408;-35
2023/12/11 07:41:02;;;;;;;;;;;12.50;50.30;;;12.74;52.58;98907.63;5052028;28;20379;-34
2023/12/11 07:43:35;;;;;;;;;;;12.50;50.20;;;12.75;53.23;98899.34;5051346;28;19987;-34
2023/12/11 07:46:03;;;;;;;;;;;12.50;50.10;;;12.74;53.80;98902.59;5053755;28;20023;-34
2023/12/11 07:48:31;;;;;;;;;;;12.50;50.30;;;12.74;53.78;98905.09;5055302;28;19924;-35
2023/12/11 07:51:00;;;;;;;;;;;12.50;50.20;;;12.75;52.47;98909.38;5055509;28;20015;-35
2023/12/11 07:53:29;;;;;;;;;;;12.50;50.20;;;12.74;53.30;98907.63;5055197;28;20023;-35
2023/12/11 07:55:57;;;;;;;;;;;12.50;50.30;;;12.73;52.66;98900.81;5055104;28;19994;-35
2023/12/11 07:58:25;;;;;;;;;;;12.50;50.40;;;12.74;53.18;98887.50;5055205;28;19924;-36
2023/12/11 08:00:53;;;;;;;;;;;12.50;50.20;;;12.74;53.55;98882.47;5055085;28;20354;-36
2023/12/11 08:03:21;;;;;;;;;;;12.50;50.30;;;12.75;53.03;98889.28;5054891;28;20387;-36
2023/12/11 08:05:49;;;;;;;;;;;12.50;50.30;;;12.73;53.44;98885.75;5054490;28;20392;-36
2023/12/11 08:08:17;;;;;;;;;;;12.50;50.30;;;12.74;53.57;98887.50;5054766;28;20343;-35
2023/12/11 08:10:46;;;;;;;;;;;12.50;50.40;;;12.73;53.13;98894.91;5055051;28;20019;-35
2023/12/11 08:13:14;;;;;;;;;;;12.50;50.40;;;12.74;53.54;98895.06;5054525;28;19924;-35
2023/12/11 08:15:43;;;;;;;;;;;12.50;50.50;;;12.74;53.25;98897.56;5054410;28;19924;-35
2023/12/11 08:18:11;;;;;;;;;;;12.50;50.30;;;12.74;52.47;98902.59;5051876;28;19924;-35
2023/12/11 08:20:39;;;;;;;;;;;12.50;50.40;;;12.73;53.68;98895.78;5054904;28;19978;-35
2023/12/11 08:23:07;;;;;;;;;;;12.50;50.60;;;12.73;53.54;98894.91;5054453;28;19925;-36
2023/12/11 08:25:35;;;;;;;;;;;12.50;50.40;;;12.74;53.15;98912.63;5053931;28;20376;-35
2023/12/11 08:28:05;;;;;;;;;;;12.50;50.40;;;12.74;53.41;98905.09;5054298;28;20015;-36
2023/12/11 08:30:33;;;;;;;;;;;12.50;50.50;;;12.74;52.88;98897.56;5054462;28;20384;-36
2023/12/11 08:33:01;;;;;;;;;;;12.50;50.50;;;12.73;53.01;98894.91;5054652;28;19979;-35
2023/12/11 08:35:29;;;;;;;;;;;12.50;50.60;;;12.73;52.82;98888.25;5054145;28;19924;-35
2023/12/11 08:37:57;;;;;;;;;;;12.60;50.60;;;12.74;53.17;98891.66;5054600;28;19928;-36
2023/12/11 08:40:26;;;;;;;;;;;12.50;50.50;;;12.73;53.00;98892.38;5054220;28;19925;-36
2023/12/11 08:42:54;;;;;;;;;;;12.50;50.50;;;12.75;52.94;98895.94;5054315;28;19999;-36
2023/12/11 08:45:23;;;;;;;;;;;12.50;50.40;;;12.73;53.39;98894.91;5054320;28;19924;-36
2023/12/11 08:47:51;;;;;;;;;;;12.50;50.50;;;12.73;53.21;98885.75;5054854;28;19925;-36
2023/12/11 08:50:19;;;;;;;;;;;12.50;50.40;;;12.73;54.03;98895.78;5054589;28;19929;-36
2023/12/11 08:52:47;;;;;;;;;;;12.50;50.60;;;12.73;53.83;98893.28;5054761;28;19924;-36
2023/12/11 08:55:15;;;;;;;;;;;12.50;50.60;;;12.73;53.84;98885.75;5054648;28;19924;-37
2023/12/11 08:57:44;;;;;;;;;;;12.50;50.60;;;12.74;52.81;98892.53;5053417;28;19924;-36
2023/12/11 09:00:13;;;;;;;;;;;12.50;50.60;;;12.74;53.77;98892.53;5054486;28;20482;-36
2023/12/11 09:02:42;;;;;;;;;;;12.50;50.50;;;12.74;53.80;98897.56;5045797;28;20012;-37
2023/12/11 09:05:10;;;;;;;;;;;12.50;50.60;;;12.75;53.26;98894.31;5053413;28;20028;-37
2023/12/11 09:07:38;;;;;;;;;;;12.50;50.60;;;12.73;53.80;98900.81;5053802;28;20007;-37
2023/12/11 09:10:08;;;;;;;;;;;12.50;50.70;;;12.75;53.45;98894.31;5053998;28;20464;-37
2023/12/11 09:12:36;;;;;;;;;;;12.60;50.70;;;12.75;53.58;98904.38;5053985;28;19994;-36
2023/12/11 09:15:05;;;;;;;;;;;12.50;50.70;;;12.75;53.69;98909.38;5054614;28;20411;-36
2023/12/11 09:17:33;;;;;;;;;;;12.60;50.90;;;12.76;53.38;98911.16;5064774;28;19967;-36
2023/12/11 09:20:06;;;;;;;;;;;12.60;50.70;;;12.76;53.49;98906.13;5116990;22;19928;-35
2023/12/11 09:22:34;;;;;;;;;;;12.60;50.90;;;12.73;53.48;98910.88;5114214;28;19966;-35
2023/12/11 09:25:02;;;;;;;;;;;12.60;50.80;;;12.77;53.60;98912.91;5113857;28;19979;-35
2023/12/11 09:27:30;;;;;;;;;;;12.60;50.80;;;12.76;54.44;98915.31;5114243;28;19924;-35
2023/12/11 09:29:58;;;;;;;;;;;12.60;51.00;;;12.74;53.47;98910.13;5096433;28;19924;-35
2023/12/11 09:32:27;;;;;;;;;;;12.60;50.90;;;12.73;53.85;98920.91;5093888;28;20019;-35
2023/12/11 09:34:56;;;;;;;;;;;12.60;50.90;;;12.76;53.91;98915.31;5093407;28;19930;-35
2023/12/11 09:37:25;;;;;;;;;;;12.60;50.90;;;12.75;53.83;98924.47;5093496;28;20359;-35
2023/12/11 09:39:53;;;;;;;;;;;12.50;50.90;;;12.76;54.11;98911.16;5093343;28;20006;-35
2023/12/11 09:42:21;;;;;;;;;;;12.60;50.90;;;12.77;53.76;98912.91;5093142;28;19924;-35
2023/12/11 09:44:49;;;;;;;;;;;12.60;50.90;;;12.76;53.93;98911.16;5092784;28;19930;-35
2023/12/11 09:47:20;;;;;;;;;;;12.60;51.00;;;12.77;54.13;98917.94;5093602;28;19947;-35
2023/12/11 09:49:48;;;;;;;;;;;12.50;50.90;;;12.76;54.55;98926.25;5093137;28;19930;-35
2023/12/11 09:52:16;;;;;;;;;;;12.60;51.10;;;12.75;54.31;98924.47;5093024;28;19973;-35
2023/12/11 09:54:47;;;;;;;;;;;12.60;50.90;;;12.76;53.85;98930.38;5084885;28;19954;-35
2023/12/11 09:57:15;;;;;;;;;;;12.60;51.10;;;12.77;53.69;98922.09;5093419;28;19931;-35
2023/12/11 09:59:44;;;;;;;;;;;12.60;51.00;;;12.77;54.48;98935.53;5085002;28;19989;-35
2023/12/11 10:02:13;;;;;;;;;;;12.60;51.10;;;12.76;53.92;98941.31;5093534;28;19924;-36
2023/12/11 10:05:03;;;;;;;;;;;12.50;50.80;;;12.77;54.30;98943.06;5093098;28;19935;-36
2023/12/11 10:07:31;;;;;;;;;;;12.60;50.90;;;12.77;53.43;98938.03;5093099;28;19927;-36
2023/12/11 10:10:20;;;;;;;;;;;12.50;50.80;;;12.76;53.81;98936.28;5092160;28;19928;-36
2023/12/11 10:12:48;;;;;;;;;;;12.60;50.90;;;12.75;53.55;98937.03;5085287;28;19924;-36
2023/12/11 10:15:20;;;;;;;;;;;12.50;50.80;;;12.76;54.34;98946.34;5093026;28;19924;-36
2023/12/11 10:18:00;;;;;;;;;;;12.50;50.80;;;12.78;53.49;98954.91;5084643;28;19927;-36
2023/12/11 10:20:28;;;;;;;;;;;12.60;50.80;;;12.78;54.40;98957.41;5093449;28;19928;-36
2023/12/11 10:22:56;;;;;;;;;;;12.60;51.00;;;12.78;53.45;98969.97;5092622;28;19924;-36
2023/12/11 10:25:29;;;;;;;;;;;12.60;50.80;;;12.78;53.89;98969.97;5092007;28;19928;-36
2023/12/11 10:28:07;;;;;;;;;;;12.50;50.70;;;12.77;52.91;98973.22;5092395;28;19932;-35
2023/12/11 10:30:42;;;;;;;;;;;12.50;50.70;;;12.76;53.42;98976.50;5092213;28;20403;-35
2023/12/11 10:33:11;;;;;;;;;;;12.60;50.80;;;12.77;53.72;98978.25;5092465;28;19924;-35
2023/12/11 10:35:39;;;;;;;;;;;12.50;50.70;;;12.75;53.62;98983.88;5091985;28;19924;-36
2023/12/11 10:38:07;;;;;;;;;;;12.60;50.80;;;12.78;53.56;98984.16;5092263;28;20403;-36
2023/12/11 10:40:41;;;;;;;;;;;12.60;50.70;;;12.77;53.26;98983.28;5092306;28;20010;-36
2023/12/11 10:43:09;;;;;;;;;;;12.50;50.50;;;12.78;53.25;98990.06;5092336;28;19931;-35
2023/12/11 10:45:37;;;;;;;;;;;12.60;50.70;;;12.77;53.16;98990.81;5091960;28;20019;-36
2023/12/11 10:48:06;;;;;;;;;;;12.60;50.70;;;12.76;53.76;98991.59;5092432;28;19924;-36
2023/12/11 10:50:35;;;;;;;;;;;12.60;50.90;;;12.76;53.88;98991.59;5092595;28;19947;-36
2023/12/11 10:53:03;;;;;;;;;;;12.60;50.70;;;12.77;53.82;99007.56;5092628;28;19963;-37
2023/12/11 10:55:32;;;;;;;;;;;12.60;50.80;;;12.76;53.78;98995.72;5091966;28;20010;-37
2023/12/11 10:58:02;;;;;;;;;;;12.60;50.90;;;12.76;53.48;98996.59;5092362;28;19924;-36
2023/12/11 11:00:31;;;;;;;;;;;12.60;50.80;;;12.76;53.82;98996.59;5091942;28;20387;-36
2023/12/11 11:02:59;;;;;;;;;;;12.60;50.90;;;12.77;54.28;99000.00;5092001;28;19924;-36
2023/12/11 11:05:28;;;;;;;;;;;12.60;51.00;;;12.11;53.91;98891.50;5091764;28;19931;-36
2023/12/11 11:08:00;;;;;;;;;;;12.60;50.90;;;12.78;54.14;99005.16;5092021;28;19931;-36
2023/12/11 11:10:32;;;;;;;;;;;12.50;50.90;;;12.78;53.40;99014.31;5091675;28;19976;-37
2023/12/11 11:13:05;;;;;;;;;;;12.60;50.90;;;12.76;53.72;99011.69;5092145;28;19924;-36
2023/12/11 11:15:33;;;;;;;;;;;12.60;51.00;;;12.78;54.00;99010.19;5091789;28;20390;-37
2023/12/11 11:18:01;;;;;;;;;;;12.50;50.80;;;12.78;53.83;99010.19;5091930;28;20011;-36
2023/12/11 11:20:29;;;;;;;;;;;12.60;50.90;;;12.77;54.08;99008.41;5095281;28;20444;-36
2023/12/11 11:23:21;;;;;;;;;;;12.60;50.90;;;12.78;53.14;99025.25;5095729;28;19947;-36